Time;durP1;ratioP1;P1;durP2;ratioP2;P2;SDS_P1;SDS_P2;PMS_P1;PMS_P2;Temp;Humidity;BMP_temperature;BMP_pressure;BME280_temperature;BME280_humidity;BME280_pressure;Samples;Min_cycle;Max_cycle;Signal;HPM_P1;HPM_P2
2022/09/14 00:01:22;;;;;;;14.95;10.95;;;;;;;;;;5095391;28;20207;-50
2022/09/14 00:03:56;;;;;;;14.38;10.07;;;;;;;;;;5095405;28;20236;-50
2022/09/14 00:06:23;;;;;;;16.08;10.70;;;;;;;;;;5095360;28;20217;-54
2022/09/14 00:08:52;;;;;;;15.35;10.48;;;;;;;;;;5095291;28;20293;-56
2022/09/14 00:11:20;;;;;;;14.27;10.68;;;;;;;;;;5095041;28;20623;-49
2022/09/14 00:13:47;;;;;;;12.70;9.85;;;;;;;;;;5095189;28;20298;-50
2022/09/14 00:16:18;;;;;;;12.07;10.05;;;;;;;;;;5095218;28;20202;-55
2022/09/14 00:18:54;;;;;;;14.23;10.52;;;;;;;;;;5095175;28;20191;-54
2022/09/14 00:21:22;;;;;;;14.23;10.55;;;;;;;;;;5095718;28;20294;-53
2022/09/14 00:23:49;;;;;;;16.50;10.13;;;;;;;;;;5095048;28;20218;-53
2022/09/14 00:26:19;;;;;;;14.45;10.77;;;;;;;;;;5094986;28;20221;-55
2022/09/14 00:28:49;;;;;;;12.48;9.57;;;;;;;;;;5094962;28;20195;-56
2022/09/14 00:31:17;;;;;;;13.80;10.30;;;;;;;;;;5094815;28;20256;-57
2022/09/14 00:33:48;;;;;;;11.93;10.18;;;;;;;;;;5092012;28;20229;-58
2022/09/14 00:36:25;;;;;;;12.18;9.27;;;;;;;;;;5093653;28;20281;-55
2022/09/14 00:38:56;;;;;;;17.83;10.80;;;;;;;;;;5094679;28;20194;-54
2022/09/14 00:41:26;;;;;;;13.55;10.65;;;;;;;;;;5095240;28;20218;-54
2022/09/14 00:43:55;;;;;;;16.35;10.60;;;;;;;;;;5094665;28;20227;-55
2022/09/14 00:46:23;;;;;;;13.65;10.32;;;;;;;;;;5095169;28;20248;-55
2022/09/14 00:48:51;;;;;;;11.93;10.32;;;;;;;;;;5095355;28;20222;-55
2022/09/14 00:51:20;;;;;;;15.43;10.82;;;;;;;;;;5094800;28;20225;-55
2022/09/14 00:53:47;;;;;;;15.63;10.45;;;;;;;;;;5094581;28;20202;-55
2022/09/14 00:56:14;;;;;;;17.08;10.38;;;;;;;;;;5093913;28;20194;-54
2022/09/14 00:58:44;;;;;;;13.27;10.27;;;;;;;;;;5093765;28;20199;-55
2022/09/14 01:01:11;;;;;;;16.20;11.20;;;;;;;;;;5093787;28;20207;-56
2022/09/14 01:03:38;;;;;;;13.68;10.52;;;;;;;;;;5094633;28;20641;-54
2022/09/14 01:06:23;;;;;;;15.93;11.23;;;;;;;;;;5095437;28;20296;-55
2022/09/14 01:09:21;;;;;;;13.52;10.80;;;;;;;;;;5098372;28;20267;-55
2022/09/14 01:12:06;;;;;;;16.42;11.77;;;;;;;;;;5098288;28;20206;-55
2022/09/14 01:14:58;;;;;;;17.40;11.40;;;;;;;;;;5098471;28;20210;-55
2022/09/14 01:17:35;;;;;;;17.50;12.38;;;;;;;;;;5098235;28;20203;-54
2022/09/14 01:20:19;;;;;;;15.40;12.55;;;;;;;;;;5098830;28;20305;-54
2022/09/14 01:23:13;;;;;;;16.20;11.95;;;;;;;;;;5098391;28;20627;-55
2022/09/14 01:26:07;;;;;;;16.33;12.45;;;;;;;;;;5098076;28;20240;-56
2022/09/14 01:28:44;;;;;;;19.17;12.68;;;;;;;;;;5098329;28;20191;-53
2022/09/14 01:31:15;;;;;;;17.58;12.68;;;;;;;;;;5091406;28;20256;-57
2022/09/14 01:33:49;;;;;;;15.32;12.82;;;;;;;;;;5097373;28;20264;-55
2022/09/14 01:36:17;;;;;;;14.88;13.07;;;;;;;;;;5098162;28;20215;-53
2022/09/14 01:38:47;;;;;;;17.30;12.73;;;;;;;;;;5097071;28;20210;-57
2022/09/14 01:41:17;;;;;;;20.92;13.23;;;;;;;;;;5098026;28;20263;-54
2022/09/14 01:44:08;;;;;;;17.55;12.82;;;;;;;;;;5096873;28;20199;-53
2022/09/14 01:46:43;;;;;;;16.55;13.50;;;;;;;;;;5091746;28;20234;-57
2022/09/14 01:49:32;;;;;;;18.00;13.75;;;;;;;;;;5097998;28;20569;-54
2022/09/14 01:52:25;;;;;;;17.13;14.27;;;;;;;;;;5096712;28;20619;-56
2022/09/14 01:54:57;;;;;;;19.50;15.38;;;;;;;;;;5096873;28;20201;-56
2022/09/14 01:57:38;;;;;;;17.80;13.48;;;;;;;;;;5097534;28;20528;-56
2022/09/14 02:00:11;;;;;;;19.83;14.63;;;;;;;;;;5097862;28;20646;-55
2022/09/14 02:02:41;;;;;;;18.63;13.63;;;;;;;;;;5097467;28;20259;-54
2022/09/14 02:05:16;;;;;;;19.10;14.40;;;;;;;;;;5097636;28;20226;-56
2022/09/14 02:07:43;;;;;;;20.10;15.05;;;;;;;;;;5097504;28;20213;-55
2022/09/14 02:10:11;;;;;;;19.08;14.43;;;;;;;;;;5097337;28;20226;-57
2022/09/14 02:12:39;;;;;;;18.13;13.93;;;;;;;;;;5096564;28;20651;-56
2022/09/14 02:15:09;;;;;;;17.38;14.65;;;;;;;;;;5096431;28;20203;-55
2022/09/14 02:17:36;;;;;;;20.08;15.57;;;;;;;;;;5095431;28;20198;-54
2022/09/14 02:20:06;;;;;;;19.92;14.65;;;;;;;;;;5097519;28;20199;-55
2022/09/14 02:22:33;;;;;;;20.65;16.13;;;;;;;;;;5096366;28;20206;-57
2022/09/14 02:25:00;;;;;;;24.35;15.52;;;;;;;;;;5093204;28;20242;-58
2022/09/14 02:27:27;;;;;;;21.75;15.57;;;;;;;;;;5095667;28;20203;-56
2022/09/14 02:29:54;;;;;;;21.75;15.85;;;;;;;;;;5096839;28;20198;-55
2022/09/14 02:32:36;;;;;;;22.10;15.88;;;;;;;;;;5096128;28;20313;-57
2022/09/14 02:35:22;;;;;;;23.00;15.35;;;;;;;;;;5097433;28;20599;-56
2022/09/14 02:37:58;;;;;;;21.63;15.90;;;;;;;;;;5096415;28;20202;-57
2022/09/14 02:40:36;;;;;;;20.80;16.55;;;;;;;;;;5096101;28;20206;-55
2022/09/14 02:43:03;;;;;;;22.15;16.20;;;;;;;;;;5096506;28;20285;-52
2022/09/14 02:45:52;;;;;;;25.60;17.45;;;;;;;;;;5096487;28;20250;-55
2022/09/14 02:48:31;;;;;;;22.45;17.48;;;;;;;;;;5097064;28;20213;-55
2022/09/14 02:51:16;;;;;;;21.05;17.35;;;;;;;;;;5095574;28;20583;-54
2022/09/14 02:53:58;;;;;;;25.35;17.83;;;;;;;;;;5096865;28;20563;-56
2022/09/14 02:56:27;;;;;;;25.50;17.42;;;;;;;;;;5095649;28;20235;-56
2022/09/14 02:58:54;;;;;;;22.20;17.88;;;;;;;;;;5095662;28;20267;-57
2022/09/14 03:01:22;;;;;;;24.48;17.88;;;;;;;;;;5095565;28;20198;-57
2022/09/14 03:03:49;;;;;;;27.60;18.80;;;;;;;;;;5096386;28;20210;-55
2022/09/14 03:06:16;;;;;;;25.55;19.25;;;;;;;;;;5096567;28;20254;-56
2022/09/14 03:08:43;;;;;;;23.67;18.73;;;;;;;;;;5096356;28;20198;-56
2022/09/14 03:11:10;;;;;;;27.42;19.73;;;;;;;;;;5096276;28;20202;-53
2022/09/14 03:13:37;;;;;;;26.00;18.77;;;;;;;;;;5096108;28;20213;-56
2022/09/14 03:16:09;;;;;;;24.23;19.10;;;;;;;;;;5096026;28;20202;-56
2022/09/14 03:18:37;;;;;;;22.92;17.75;;;;;;;;;;5095984;28;20288;-56
2022/09/14 03:21:06;;;;;;;22.60;17.83;;;;;;;;;;5090234;28;20222;-58
2022/09/14 03:23:47;;;;;;;24.85;18.55;;;;;;;;;;5095900;28;20205;-57
2022/09/14 03:26:16;;;;;;;21.60;17.70;;;;;;;;;;5095688;28;20221;-56
2022/09/14 03:28:43;;;;;;;28.52;18.38;;;;;;;;;;5095597;28;20202;-57
2022/09/14 03:31:11;;;;;;;22.58;17.65;;;;;;;;;;5095876;28;20203;-57
2022/09/14 03:33:39;;;;;;;21.00;17.15;;;;;;;;;;5095868;28;20256;-56
2022/09/14 03:36:11;;;;;;;22.63;16.95;;;;;;;;;;5095649;28;20207;-57
2022/09/14 03:38:41;;;;;;;21.42;16.98;;;;;;;;;;5095809;28;20206;-53
2022/09/14 03:41:10;;;;;;;23.77;16.45;;;;;;;;;;5077350;28;20214;-56
2022/09/14 03:43:36;;;;;;;19.92;15.88;;;;;;;;;;5095657;28;20199;-57
2022/09/14 03:46:08;;;;;;;18.70;16.13;;;;;;;;;;5095771;28;20742;-56
2022/09/14 03:48:35;;;;;;;19.63;15.55;;;;;;;;;;5095683;28;20568;-57
2022/09/14 03:51:03;;;;;;;19.63;16.33;;;;;;;;;;5095537;28;20198;-57
2022/09/14 03:53:31;;;;;;;19.83;15.73;;;;;;;;;;5095299;28;20218;-57
2022/09/14 03:55:58;;;;;;;21.17;16.02;;;;;;;;;;5094619;28;20203;-57
2022/09/14 03:58:25;;;;;;;22.88;16.73;;;;;;;;;;5095526;28;20203;-55
2022/09/14 04:00:52;;;;;;;20.10;14.90;;;;;;;;;;5095328;28;20205;-57
2022/09/14 04:03:19;;;;;;;19.85;15.80;;;;;;;;;;5095121;28;20626;-58
2022/09/14 04:05:54;;;;;;;18.73;15.57;;;;;;;;;;5095198;28;20305;-57
2022/09/14 04:08:22;;;;;;;21.20;16.05;;;;;;;;;;5069418;28;20616;-58
2022/09/14 04:10:49;;;;;;;21.73;15.50;;;;;;;;;;5074162;28;20622;-57
2022/09/14 04:13:16;;;;;;;17.98;15.18;;;;;;;;;;5073850;28;20623;-56
2022/09/14 04:15:43;;;;;;;22.35;15.82;;;;;;;;;;5073204;28;20219;-59
2022/09/14 04:18:10;;;;;;;22.30;15.70;;;;;;;;;;5069520;28;20226;-57
2022/09/14 04:20:37;;;;;;;19.00;15.93;;;;;;;;;;5073992;28;20294;-54
2022/09/14 04:23:05;;;;;;;18.92;14.52;;;;;;;;;;5073287;28;20238;-58
2022/09/14 04:25:31;;;;;;;23.23;16.35;;;;;;;;;;5074120;28;20258;-57
2022/09/14 04:27:58;;;;;;;19.67;15.52;;;;;;;;;;5073143;28;20671;-56
2022/09/14 04:30:59;;;;;;;20.90;15.07;;;;;;;;;;5074260;28;20234;-55
2022/09/14 04:33:29;;;;;;;20.40;15.07;;;;;;;;;;5073962;28;20277;-55
2022/09/14 04:35:57;;;;;;;19.20;14.18;;;;;;;;;;5074303;28;20219;-55
2022/09/14 04:38:24;;;;;;;18.63;13.60;;;;;;;;;;5073489;28;20230;-48
2022/09/14 04:40:51;;;;;;;18.67;13.15;;;;;;;;;;5074563;28;20219;-54
2022/09/14 04:43:18;;;;;;;17.05;13.57;;;;;;;;;;5077636;28;20280;-52
2022/09/14 04:45:45;;;;;;;18.38;12.80;;;;;;;;;;5078082;28;20231;-54
2022/09/14 04:48:12;;;;;;;17.23;13.18;;;;;;;;;;5076445;28;20226;-49
2022/09/14 04:50:39;;;;;;;17.67;13.45;;;;;;;;;;5081102;28;20230;-50
2022/09/14 04:53:09;;;;;;;17.10;12.30;;;;;;;;;;5078931;28;20748;-58
2022/09/14 04:55:36;;;;;;;17.35;13.77;;;;;;;;;;5057781;28;20273;-58
2022/09/14 04:58:03;;;;;;;16.02;12.77;;;;;;;;;;5076274;28;20234;-57
2022/09/14 05:00:33;;;;;;;15.65;12.57;;;;;;;;;;5076825;28;20227;-56
2022/09/14 05:02:59;;;;;;;16.13;13.40;;;;;;;;;;5079907;28;20314;-57
2022/09/14 05:05:27;;;;;;;17.08;13.48;;;;;;;;;;5076955;28;20266;-54
2022/09/14 05:07:53;;;;;;;18.77;14.25;;;;;;;;;;5086147;28;20215;-56
2022/09/14 05:10:20;;;;;;;19.60;14.93;;;;;;;;;;5085599;28;20214;-57
2022/09/14 05:12:47;;;;;;;16.58;13.35;;;;;;;;;;5083296;28;20202;-58
2022/09/14 05:15:14;;;;;;;17.33;13.20;;;;;;;;;;5087130;28;20237;-55
2022/09/14 05:17:41;;;;;;;18.65;13.70;;;;;;;;;;5080662;28;20268;-57
2022/09/14 05:20:08;;;;;;;15.70;13.25;;;;;;;;;;5078066;28;20203;-56
2022/09/14 05:22:35;;;;;;;16.70;13.38;;;;;;;;;;5077967;28;20214;-55
2022/09/14 05:25:02;;;;;;;19.13;14.45;;;;;;;;;;5074723;28;20272;-56
2022/09/14 05:27:30;;;;;;;17.15;13.32;;;;;;;;;;5076484;28;20207;-54
2022/09/14 05:29:57;;;;;;;18.13;13.93;;;;;;;;;;5076510;28;20290;-55
2022/09/14 05:32:23;;;;;;;16.58;12.55;;;;;;;;;;5077837;28;20202;-51
2022/09/14 05:34:50;;;;;;;17.83;13.65;;;;;;;;;;5078178;28;20207;-55
2022/09/14 05:37:17;;;;;;;17.58;14.05;;;;;;;;;;5077591;28;20215;-54
2022/09/14 05:39:44;;;;;;;17.38;13.13;;;;;;;;;;5077511;28;20195;-52
2022/09/14 05:42:11;;;;;;;18.05;13.48;;;;;;;;;;5077452;28;20199;-56
2022/09/14 05:44:38;;;;;;;19.00;13.18;;;;;;;;;;5077117;28;20235;-55
2022/09/14 05:47:05;;;;;;;16.17;12.75;;;;;;;;;;5077825;28;20195;-54
2022/09/14 05:49:32;;;;;;;16.90;13.30;;;;;;;;;;5077381;28;20226;-56
2022/09/14 05:51:59;;;;;;;17.65;11.63;;;;;;;;;;5077779;28;20294;-54
2022/09/14 05:54:26;;;;;;;16.13;12.75;;;;;;;;;;5077204;28;20514;-55
2022/09/14 05:56:53;;;;;;;16.27;11.10;;;;;;;;;;5077343;28;20647;-53
2022/09/14 05:59:20;;;;;;;18.58;12.63;;;;;;;;;;5077399;28;20615;-52
2022/09/14 06:01:46;;;;;;;14.15;11.80;;;;;;;;;;5077065;28;20281;-55
2022/09/14 06:04:13;;;;;;;14.65;11.88;;;;;;;;;;5077316;28;20211;-55
2022/09/14 06:06:40;;;;;;;15.77;11.85;;;;;;;;;;5076932;28;20314;-55
2022/09/14 06:09:22;;;;;;;14.75;11.18;;;;;;;;;;5077294;28;20207;-54
2022/09/14 06:11:48;;;;;;;12.60;10.02;;;;;;;;;;5077575;28;20290;-55
2022/09/14 06:14:18;;;;;;;12.95;11.27;;;;;;;;;;5076853;28;20627;-55
2022/09/14 06:16:45;;;;;;;14.82;11.25;;;;;;;;;;5077094;28;20207;-55
2022/09/14 06:19:14;;;;;;;14.52;11.05;;;;;;;;;;5076994;28;20273;-54
2022/09/14 06:21:41;;;;;;;18.83;11.27;;;;;;;;;;5076980;28;20195;-54
2022/09/14 06:24:11;;;;;;;13.07;10.52;;;;;;;;;;5077222;28;20207;-52
2022/09/14 06:26:38;;;;;;;13.55;10.32;;;;;;;;;;5076732;28;20261;-55
2022/09/14 06:29:06;;;;;;;12.68;10.15;;;;;;;;;;5076747;28;20205;-54
2022/09/14 06:31:33;;;;;;;13.00;10.18;;;;;;;;;;5076942;28;20214;-54
2022/09/14 06:34:00;;;;;;;13.95;10.23;;;;;;;;;;5076520;28;20195;-53
2022/09/14 06:36:27;;;;;;;12.00;9.30;;;;;;;;;;5076235;28;20286;-53
2022/09/14 06:38:55;;;;;;;12.40;9.73;;;;;;;;;;5076644;28;20254;-53
2022/09/14 06:41:27;;;;;;;14.48;9.82;;;;;;;;;;5076747;28;20206;-54
2022/09/14 06:43:56;;;;;;;11.70;9.25;;;;;;;;;;5076659;28;20214;-53
2022/09/14 06:46:26;;;;;;;12.32;9.65;;;;;;;;;;5076346;28;20576;-52
2022/09/14 06:48:57;;;;;;;14.70;10.00;;;;;;;;;;5076461;28;20715;-53
2022/09/14 06:51:28;;;;;;;11.75;8.93;;;;;;;;;;5076270;28;20208;-53
2022/09/14 06:53:58;;;;;;;15.07;9.35;;;;;;;;;;5076322;28;20214;-53
2022/09/14 06:56:27;;;;;;;14.75;11.40;;;;;;;;;;5076572;28;20241;-53
2022/09/14 06:58:54;;;;;;;13.48;10.70;;;;;;;;;;5076252;28;20250;-56
2022/09/14 07:01:21;;;;;;;12.07;9.65;;;;;;;;;;5075926;28;20207;-55
2022/09/14 07:03:49;;;;;;;11.55;10.30;;;;;;;;;;5076400;28;20203;-54
2022/09/14 07:06:19;;;;;;;14.55;10.35;;;;;;;;;;5076098;28;20223;-55
2022/09/14 07:08:47;;;;;;;12.77;9.68;;;;;;;;;;5076327;28;20214;-55
2022/09/14 07:11:16;;;;;;;10.50;9.35;;;;;;;;;;5075801;28;20272;-55
2022/09/14 07:13:44;;;;;;;10.90;9.38;;;;;;;;;;5076449;28;20208;-55
2022/09/14 07:16:11;;;;;;;14.23;9.88;;;;;;;;;;5075980;28;20203;-56
2022/09/14 07:18:40;;;;;;;13.32;10.65;;;;;;;;;;5075932;28;20199;-54
2022/09/14 07:21:10;;;;;;;14.68;11.32;;;;;;;;;;5075750;28;20294;-51
2022/09/14 07:23:38;;;;;;;15.68;12.82;;;;;;;;;;5075908;28;20272;-52
2022/09/14 07:26:08;;;;;;;16.33;13.30;;;;;;;;;;5075544;28;20245;-55
2022/09/14 07:28:35;;;;;;;18.88;14.00;;;;;;;;;;5076363;28;20226;-54
2022/09/14 07:31:03;;;;;;;16.58;13.15;;;;;;;;;;5075416;28;20290;-56
2022/09/14 07:33:31;;;;;;;14.40;12.18;;;;;;;;;;5075475;28;20213;-53
2022/09/14 07:36:09;;;;;;;14.15;11.50;;;;;;;;;;5075760;28;20211;-54
2022/09/14 07:38:36;;;;;;;13.65;11.50;;;;;;;;;;5075427;28;20268;-52
2022/09/14 07:41:25;;;;;;;15.40;11.52;;;;;;;;;;5075344;28;20612;-56
2022/09/14 07:43:55;;;;;;;14.32;10.82;;;;;;;;;;5075289;28;20218;-55
2022/09/14 07:46:22;;;;;;;13.70;12.20;;;;;;;;;;5075567;28;20284;-56
2022/09/14 07:48:57;;;;;;;17.45;13.23;;;;;;;;;;5075335;28;20246;-54
2022/09/14 07:51:25;;;;;;;15.10;12.43;;;;;;;;;;5075439;28;20225;-56
2022/09/14 07:53:52;;;;;;;14.02;11.93;;;;;;;;;;5075089;28;20632;-53
2022/09/14 07:56:20;;;;;;;15.20;12.98;;;;;;;;;;5075140;28;20526;-53
2022/09/14 07:58:52;;;;;;;14.93;11.68;;;;;;;;;;5075142;28;20654;-55
2022/09/14 08:01:22;;;;;;;16.55;12.50;;;;;;;;;;5075091;28;20217;-55
2022/09/14 08:03:49;;;;;;;18.15;14.45;;;;;;;;;;5074926;28;20206;-53
2022/09/14 08:06:19;;;;;;;15.98;13.65;;;;;;;;;;5075059;28;20229;-55
2022/09/14 08:08:48;;;;;;;16.23;13.60;;;;;;;;;;5074985;28;20206;-54
2022/09/14 08:11:21;;;;;;;22.58;15.75;;;;;;;;;;5075197;28;20608;-52
2022/09/14 08:13:58;;;;;;;19.83;15.38;;;;;;;;;;5075007;28;20205;-53
2022/09/14 08:16:27;;;;;;;15.77;12.88;;;;;;;;;;5074285;28;20195;-56
2022/09/14 08:18:56;;;;;;;19.83;13.50;;;;;;;;;;5074989;28;20215;-56
2022/09/14 08:21:25;;;;;;;17.10;13.20;;;;;;;;;;5075184;28;20207;-57
2022/09/14 08:23:53;;;;;;;16.95;12.73;;;;;;;;;;5074943;28;20212;-56
2022/09/14 08:26:21;;;;;;;16.02;13.10;;;;;;;;;;5074877;28;20215;-55
2022/09/14 08:28:49;;;;;;;17.45;14.02;;;;;;;;;;5074918;28;20199;-53
2022/09/14 08:31:24;;;;;;;20.25;14.88;;;;;;;;;;5073767;28;20195;-54
2022/09/14 08:33:54;;;;;;;19.73;14.35;;;;;;;;;;5075117;28;20203;-52
2022/09/14 08:36:22;;;;;;;19.58;14.40;;;;;;;;;;5074630;28;20200;-54
2022/09/14 08:38:49;;;;;;;19.77;13.95;;;;;;;;;;5074925;28;20295;-54
2022/09/14 08:41:19;;;;;;;18.52;13.38;;;;;;;;;;5074523;28;20290;-55
2022/09/14 08:43:46;;;;;;;18.25;14.20;;;;;;;;;;5075638;28;20207;-56
2022/09/14 08:47:08;;;;;;;17.70;13.32;;;;;;;;;;5074472;28;20231;-56
2022/09/14 08:49:47;;;;;;;18.10;13.60;;;;;;;;;;5070209;28;20619;-55
2022/09/14 08:52:36;;;;;;;19.90;13.75;;;;;;;;;;5075482;28;20214;-54
2022/09/14 08:55:25;;;;;;;20.60;14.32;;;;;;;;;;5074871;28;20200;-53
2022/09/14 08:57:59;;;;;;;20.30;14.30;;;;;;;;;;5073802;28;20221;-56
2022/09/14 09:00:44;;;;;;;20.83;14.32;;;;;;;;;;5074236;28;20333;-52
2022/09/14 09:03:17;;;;;;;20.50;15.57;;;;;;;;;;5073511;28;20188;-54
2022/09/14 09:06:02;;;;;;;22.95;16.05;;;;;;;;;;5074362;28;20211;-55
2022/09/14 09:08:52;;;;;;;21.23;15.90;;;;;;;;;;5075258;28;20204;-54
2022/09/14 09:11:21;;;;;;;21.38;14.65;;;;;;;;;;5074749;28;20257;-55
2022/09/14 09:13:49;;;;;;;22.08;15.98;;;;;;;;;;5073515;28;20230;-55
2022/09/14 09:16:19;;;;;;;21.40;16.90;;;;;;;;;;5074440;28;20215;-54
2022/09/14 09:18:52;;;;;;;22.90;16.50;;;;;;;;;;5074512;28;20184;-53
2022/09/14 09:21:26;;;;;;;22.15;15.48;;;;;;;;;;5074726;28;20208;-54
2022/09/14 09:24:21;;;;;;;21.30;15.90;;;;;;;;;;5073751;28;20214;-54
2022/09/14 09:26:49;;;;;;;24.55;16.25;;;;;;;;;;5071264;28;20246;-54
2022/09/14 09:29:16;;;;;;;18.42;14.48;;;;;;;;;;5077970;28;20643;-54
2022/09/14 09:32:02;;;;;;;18.95;15.27;;;;;;;;;;5077438;28;20203;-54
2022/09/14 09:34:50;;;;;;;23.08;15.18;;;;;;;;;;5063272;28;20542;-56
2022/09/14 09:37:30;;;;;;;21.30;14.57;;;;;;;;;;5077260;28;20268;-55
2022/09/14 09:39:58;;;;;;;22.63;15.38;;;;;;;;;;5077030;28;20250;-52
2022/09/14 09:42:27;;;;;;;20.83;14.60;;;;;;;;;;5077402;28;20226;-54
2022/09/14 09:45:04;;;;;;;21.38;15.95;;;;;;;;;;5077746;28;20239;-54
2022/09/14 09:47:39;;;;;;;18.30;14.15;;;;;;;;;;5077649;28;20234;-51
2022/09/14 09:50:13;;;;;;;18.33;13.10;;;;;;;;;;5078277;28;20195;-55
2022/09/14 09:52:57;;;;;;;21.30;15.48;;;;;;;;;;5077508;28;20576;-55
2022/09/14 09:55:30;;;;;;;20.70;15.70;;;;;;;;;;5077687;28;20280;-55
2022/09/14 09:58:29;;;;;;;22.50;16.63;;;;;;;;;;5076860;28;20188;-53
2022/09/14 10:01:03;;;;;;;18.38;13.95;;;;;;;;;;5077452;28;20286;-55
2022/09/14 10:03:37;;;;;;;18.50;14.85;;;;;;;;;;5077336;28;20632;-54
2022/09/14 10:06:11;;;;;;;16.38;13.60;;;;;;;;;;5077298;28;20218;-56
2022/09/14 10:08:41;;;;;;;18.27;14.13;;;;;;;;;;5076426;28;20229;-55
2022/09/14 10:11:36;;;;;;;20.35;14.43;;;;;;;;;;5076279;28;20611;-53
2022/09/14 10:14:16;;;;;;;22.17;15.98;;;;;;;;;;5077491;28;20208;-55
2022/09/14 10:16:43;;;;;;;17.50;12.25;;;;;;;;;;5076397;28;20250;-55
2022/09/14 10:19:17;;;;;;;16.13;10.98;;;;;;;;;;5076220;28;20550;-55
2022/09/14 10:22:04;;;;;;;18.25;12.82;;;;;;;;;;5076330;28;20691;-56
2022/09/14 10:24:33;;;;;;;22.15;14.18;;;;;;;;;;5076054;28;20546;-55
2022/09/14 10:27:00;;;;;;;15.38;11.57;;;;;;;;;;5076093;28;20288;-55
2022/09/14 10:29:43;;;;;;;21.25;13.93;;;;;;;;;;5076826;28;20210;-54
2022/09/14 10:32:18;;;;;;;20.25;14.95;;;;;;;;;;5076964;28;20631;-53
2022/09/14 10:34:45;;;;;;;20.52;14.80;;;;;;;;;;5076365;28;20265;-55
2022/09/14 10:37:19;;;;;;;18.48;12.57;;;;;;;;;;5075594;28;20203;-54
2022/09/14 10:39:58;;;;;;;19.75;11.98;;;;;;;;;;5074965;28;20210;-55
2022/09/14 10:42:57;;;;;;;19.70;12.18;;;;;;;;;;5076176;28;20184;-55
2022/09/14 10:45:31;;;;;;;17.88;12.00;;;;;;;;;;5014568;28;20690;-54
2022/09/14 10:48:27;;;;;;;18.95;13.07;;;;;;;;;;5015084;28;20217;-56
2022/09/14 10:51:09;;;;;;;14.80;11.32;;;;;;;;;;4986012;28;20272;-56
2022/09/14 10:53:51;;;;;;;15.05;11.05;;;;;;;;;;5008234;28;20185;-55
2022/09/14 10:56:25;;;;;;;16.27;11.73;;;;;;;;;;5004519;28;20193;-55
2022/09/14 10:59:05;;;;;;;16.77;12.35;;;;;;;;;;5001990;28;20206;-56
2022/09/14 11:01:50;;;;;;;15.63;11.05;;;;;;;;;;4988075;28;20272;-56
2022/09/14 11:04:56;;;;;;;12.95;9.27;;;;;;;;;;5004457;28;20201;-56
2022/09/14 11:07:45;;;;;;;13.40;8.63;;;;;;;;;;5002900;28;20221;-54
2022/09/14 11:10:21;;;;;;;14.70;8.70;;;;;;;;;;5003249;28;20194;-57
2022/09/14 11:13:02;;;;;;;12.75;8.80;;;;;;;;;;4985900;28;20218;-55
2022/09/14 11:15:51;;;;;;;12.80;8.10;;;;;;;;;;4987462;28;20201;-55
2022/09/14 11:18:46;;;;;;;10.95;8.27;;;;;;;;;;5004083;28;20690;-55
2022/09/14 11:21:41;;;;;;;11.70;7.75;;;;;;;;;;5012446;28;20217;-53
2022/09/14 11:24:17;;;;;;;11.38;7.25;;;;;;;;;;5083277;28;20271;-54
2022/09/14 11:26:55;;;;;;;11.95;7.30;;;;;;;;;;5083140;28;20207;-56
2022/09/14 11:29:31;;;;;;;10.02;6.95;;;;;;;;;;5083181;28;20293;-54
2022/09/14 11:32:20;;;;;;;11.43;7.13;;;;;;;;;;5084704;28;20202;-53
2022/09/14 11:35:10;;;;;;;12.00;7.43;;;;;;;;;;5083189;28;20211;-54
2022/09/14 11:37:41;;;;;;;10.10;6.53;;;;;;;;;;5084861;28;20229;-58
2022/09/14 11:40:27;;;;;;;12.70;7.50;;;;;;;;;;5096326;28;20507;-59
2022/09/14 11:43:30;;;;;;;15.40;8.77;;;;;;;;;;5084110;28;20238;-59
2022/09/14 11:46:08;;;;;;;14.05;8.02;;;;;;;;;;5081727;28;20314;-58
2022/09/14 11:48:51;;;;;;;12.02;7.57;;;;;;;;;;5083186;28;20214;-58
2022/09/14 11:51:54;;;;;;;10.38;7.78;;;;;;;;;;5083584;28;20202;-60
2022/09/14 11:54:23;;;;;;;13.15;7.80;;;;;;;;;;5080635;28;20221;-61
2022/09/14 11:56:59;;;;;;;11.43;7.45;;;;;;;;;;5082171;28;20627;-60
2022/09/14 11:59:36;;;;;;;9.88;6.70;;;;;;;;;;5080643;28;20599;-60
2022/09/14 12:02:21;;;;;;;11.70;7.10;;;;;;;;;;5082752;28;20823;-57
2022/09/14 12:05:07;;;;;;;16.10;7.25;;;;;;;;;;5082282;28;20188;-57
2022/09/14 12:07:41;;;;;;;8.60;6.88;;;;;;;;;;5083574;28;20222;-57
2022/09/14 12:10:14;;;;;;;11.18;7.68;;;;;;;;;;5082104;28;20248;-58
2022/09/14 12:12:53;;;;;;;12.43;7.05;;;;;;;;;;5079528;28;20250;-58
2022/09/14 12:15:27;;;;;;;11.02;8.07;;;;;;;;;;5089015;28;20584;-56
2022/09/14 12:18:03;;;;;;;11.05;7.35;;;;;;;;;;5094514;28;20300;-57
2022/09/14 12:20:40;;;;;;;17.17;7.95;;;;;;;;;;5094715;28;20186;-58
2022/09/14 12:23:09;;;;;;;9.75;6.60;;;;;;;;;;5084888;28;20281;-58
2022/09/14 12:25:38;;;;;;;10.60;6.22;;;;;;;;;;5083567;28;20252;-57
2022/09/14 12:28:36;;;;;;;10.25;6.65;;;;;;;;;;5082230;28;20220;-56
2022/09/14 12:31:03;;;;;;;12.32;7.78;;;;;;;;;;5076160;28;20219;-59
2022/09/14 12:33:33;;;;;;;14.55;7.32;;;;;;;;;;5077489;28;20534;-58
2022/09/14 12:36:00;;;;;;;9.80;6.30;;;;;;;;;;5080259;28;20531;-58
2022/09/14 12:38:30;;;;;;;12.35;6.13;;;;;;;;;;5072900;28;20226;-57
2022/09/14 12:41:02;;;;;;;15.25;7.18;;;;;;;;;;5084990;28;20232;-57
2022/09/14 12:43:32;;;;;;;9.80;5.72;;;;;;;;;;5076455;28;20218;-58
2022/09/14 12:46:21;;;;;;;10.52;6.38;;;;;;;;;;5080702;28;20230;-59
2022/09/14 12:48:58;;;;;;;11.57;5.72;;;;;;;;;;5071691;28;20250;-58
2022/09/14 12:51:29;;;;;;;7.55;5.32;;;;;;;;;;5075852;28;20246;-60
2022/09/14 12:54:08;;;;;;;9.10;5.82;;;;;;;;;;5079892;28;20531;-60
2022/09/14 12:56:47;;;;;;;10.27;6.82;;;;;;;;;;5085276;28;20219;-60
2022/09/14 12:59:21;;;;;;;13.98;6.60;;;;;;;;;;5079481;28;20222;-58
2022/09/14 13:02:04;;;;;;;11.07;6.90;;;;;;;;;;5078890;28;20659;-60
2022/09/14 13:04:33;;;;;;;9.95;6.78;;;;;;;;;;5074931;28;20217;-60
2022/09/14 13:07:03;;;;;;;9.88;7.30;;;;;;;;;;5084510;28;20227;-61
2022/09/14 13:09:30;;;;;;;14.40;6.82;;;;;;;;;;5086942;28;20220;-60
2022/09/14 13:12:02;;;;;;;9.63;6.80;;;;;;;;;;5085974;28;20539;-60
2022/09/14 13:14:33;;;;;;;9.05;7.18;;;;;;;;;;5084293;28;20547;-60
2022/09/14 13:17:02;;;;;;;14.88;7.63;;;;;;;;;;5082834;28;20219;-60
2022/09/14 13:19:31;;;;;;;8.98;6.05;;;;;;;;;;5082997;28;20207;-59
2022/09/14 13:22:00;;;;;;;7.55;5.30;;;;;;;;;;5084041;28;20223;-60
2022/09/14 13:24:33;;;;;;;9.02;5.38;;;;;;;;;;5082002;28;20287;-60
2022/09/14 13:27:01;;;;;;;9.30;5.10;;;;;;;;;;5078490;28;20693;-59
2022/09/14 13:29:29;;;;;;;10.00;6.15;;;;;;;;;;5075674;28;20230;-60
2022/09/14 13:31:57;;;;;;;9.27;5.30;;;;;;;;;;5077379;28;20223;-59
2022/09/14 13:34:33;;;;;;;8.20;4.78;;;;;;;;;;5075406;28;20229;-60
2022/09/14 13:37:01;;;;;;;6.47;4.55;;;;;;;;;;5086278;28;20257;-60
2022/09/14 13:39:36;;;;;;;10.10;5.07;;;;;;;;;;5091827;28;20341;-60
2022/09/14 13:42:04;;;;;;;8.75;5.28;;;;;;;;;;5075447;28;20551;-60
2022/09/14 13:44:40;;;;;;;9.13;5.72;;;;;;;;;;5073869;28;20241;-60
2022/09/14 13:47:11;;;;;;;13.73;5.75;;;;;;;;;;5076029;28;20238;-60
2022/09/14 13:49:39;;;;;;;9.82;5.35;;;;;;;;;;5075110;28;20233;-60
2022/09/14 13:52:20;;;;;;;11.40;5.80;;;;;;;;;;5073861;28;20269;-58
2022/09/14 13:55:08;;;;;;;9.40;5.30;;;;;;;;;;5069400;28;20226;-58
2022/09/14 13:57:35;;;;;;;7.93;5.22;;;;;;;;;;5065216;28;20284;-58
2022/09/14 14:00:15;;;;;;;9.88;4.90;;;;;;;;;;5076309;28;20223;-58
2022/09/14 14:02:48;;;;;;;7.75;5.10;;;;;;;;;;5075462;28;20223;-58
2022/09/14 14:05:44;;;;;;;10.27;4.47;;;;;;;;;;5075802;28;20555;-58
2022/09/14 14:08:40;;;;;;;8.45;4.82;;;;;;;;;;5075368;28;20235;-58
2022/09/14 14:11:07;;;;;;;6.25;4.40;;;;;;;;;;5054025;28;20227;-58
2022/09/14 14:13:36;;;;;;;9.75;5.57;;;;;;;;;;5035972;28;20219;-58
2022/09/14 14:16:23;;;;;;;9.98;4.88;;;;;;;;;;5037904;28;20220;-58
2022/09/14 14:18:53;;;;;;;7.32;4.05;;;;;;;;;;5054352;28;20681;-58
2022/09/14 14:21:23;;;;;;;7.57;4.30;;;;;;;;;;5054221;28;20547;-58
2022/09/14 14:23:51;;;;;;;11.15;4.43;;;;;;;;;;5031618;28;20232;-58
2022/09/14 14:26:47;;;;;;;10.18;4.38;;;;;;;;;;5034408;28;20303;-58
2022/09/14 14:29:15;;;;;;;9.35;4.13;;;;;;;;;;5017874;28;20236;-59
2022/09/14 14:31:43;;;;;;;45.28;7.03;;;;;;;;;;5018015;28;20221;-58
2022/09/14 14:34:26;;;;;;;8.50;4.38;;;;;;;;;;5034169;28;20711;-58
2022/09/14 14:36:54;;;;;;;10.40;3.95;;;;;;;;;;5034005;28;20228;-58
2022/09/14 14:39:23;;;;;;;8.38;4.13;;;;;;;;;;5034169;28;20319;-58
2022/09/14 14:41:51;;;;;;;6.40;3.80;;;;;;;;;;5034349;28;20228;-58
2022/09/14 14:44:21;;;;;;;17.48;5.32;;;;;;;;;;5017763;28;20244;-58
2022/09/14 14:46:48;;;;;;;10.43;4.35;;;;;;;;;;5040336;28;20311;-59
2022/09/14 14:49:17;;;;;;;7.93;4.40;;;;;;;;;;5071886;28;20235;-58
2022/09/14 14:51:45;;;;;;;10.35;4.43;;;;;;;;;;5075054;28;20596;-56
2022/09/14 14:54:15;;;;;;;12.23;4.20;;;;;;;;;;5075965;28;20227;-58
2022/09/14 14:56:46;;;;;;;9.38;4.40;;;;;;;;;;5075235;28;20227;-58